createdAt,value
2023-04-29T00:02:05.624Z,0.80
2023-04-29T00:04:33.957Z,0.50
2023-04-29T00:07:01.533Z,0.65
2023-04-29T00:09:28.875Z,0.90
2023-04-29T00:11:56.252Z,0.77
2023-04-29T00:14:23.599Z,0.50
2023-04-29T00:16:51.918Z,0.63
2023-04-29T00:19:20.219Z,0.70
2023-04-29T00:21:47.544Z,0.52
2023-04-29T00:24:14.850Z,0.80
2023-04-29T00:26:42.186Z,1.02
2023-04-29T00:29:09.521Z,1.00
2023-04-29T00:31:37.851Z,0.93
2023-04-29T00:34:05.551Z,0.70
2023-04-29T00:36:33.153Z,0.80
2023-04-29T00:39:00.588Z,0.70
2023-04-29T00:41:27.913Z,0.73
2023-04-29T00:43:55.318Z,1.00
2023-04-29T00:46:22.866Z,1.00
2023-04-29T00:48:50.558Z,1.00
2023-04-29T00:51:18.943Z,0.73
2023-04-29T00:53:48.464Z,0.63
2023-04-29T00:56:17.856Z,0.80
2023-04-29T00:58:50.203Z,0.70
2023-04-29T01:01:17.813Z,0.57
2023-04-29T01:03:46.653Z,0.80
2023-04-29T01:06:35.921Z,0.82
2023-04-29T01:09:29.902Z,0.60
2023-04-29T01:12:14.046Z,0.77
2023-04-29T01:14:46.978Z,0.82
2023-04-29T01:17:20.019Z,0.80
2023-04-29T01:19:52.984Z,0.90
2023-04-29T01:22:22.690Z,1.13
2023-04-29T01:24:51.989Z,0.90
2023-04-29T01:28:09.395Z,0.90
2023-04-29T01:31:07.324Z,0.82
2023-04-29T01:34:11.221Z,0.55
2023-04-29T01:37:17.688Z,0.75
2023-04-29T01:40:25.198Z,0.50
2023-04-29T01:43:18.290Z,0.50
2023-04-29T01:45:48.406Z,0.73
2023-04-29T01:48:18.081Z,0.60
2023-04-29T01:50:46.527Z,0.60
2023-04-29T01:53:16.678Z,0.38
2023-04-29T01:55:45.419Z,0.60
2023-04-29T01:58:32.970Z,0.70
2023-04-29T02:01:18.589Z,0.60
2023-04-29T02:03:47.235Z,0.60
2023-04-29T02:06:16.571Z,0.60
2023-04-29T02:08:46.896Z,0.50
2023-04-29T02:11:14.239Z,0.50
2023-04-29T02:13:43.269Z,0.40
2023-04-29T02:16:14.449Z,0.90
2023-04-29T02:19:02.051Z,0.50
2023-04-29T02:21:29.521Z,0.60
2023-04-29T02:23:57.091Z,0.40
2023-04-29T02:26:25.828Z,0.60
2023-04-29T02:28:57.505Z,0.60
2023-04-29T02:31:25.182Z,0.50
2023-04-29T02:33:54.647Z,0.82
2023-04-29T02:36:22.294Z,0.40
2023-04-29T02:38:51.721Z,0.40
2023-04-29T02:41:19.084Z,0.40
2023-04-29T02:43:52.281Z,0.47
2023-04-29T02:46:19.987Z,0.40
2023-04-29T02:48:47.529Z,0.50
2023-04-29T02:51:16.487Z,0.47
2023-04-29T02:53:44.230Z,0.73
2023-04-29T02:56:11.849Z,0.40
2023-04-29T02:58:39.455Z,0.60
2023-04-29T03:01:07.449Z,0.50
2023-04-29T03:03:35.047Z,0.45
2023-04-29T03:06:04.074Z,0.70
2023-04-29T03:08:31.499Z,0.55
2023-04-29T03:10:58.983Z,0.40
2023-04-29T03:13:26.534Z,0.70
2023-04-29T03:15:54.209Z,0.80
2023-04-29T03:18:22.019Z,0.70
2023-04-29T03:20:49.544Z,0.50
2023-04-29T03:23:16.947Z,0.50
2023-04-29T03:25:44.564Z,0.50
2023-04-29T03:28:11.926Z,0.57
2023-04-29T03:30:39.391Z,0.37
2023-04-29T03:33:06.944Z,0.50
2023-04-29T03:35:34.588Z,0.40
2023-04-29T03:38:16.710Z,0.55
2023-04-29T03:43:14.199Z,0.47
2023-04-29T03:45:42.016Z,0.40
2023-04-29T03:48:10.108Z,0.73
2023-04-29T03:50:37.557Z,0.53
2023-04-29T03:53:05.877Z,0.50
2023-04-29T03:55:33.438Z,0.70
2023-04-29T03:58:01.255Z,0.68
2023-04-29T04:00:31.473Z,0.53
2023-04-29T04:03:05.009Z,0.60
2023-04-29T04:05:33.216Z,0.40
2023-04-29T04:08:07.016Z,0.40
2023-04-29T04:10:37.813Z,0.50
2023-04-29T04:13:15.684Z,0.80
2023-04-29T04:15:51.635Z,0.70
2023-04-29T04:18:19.159Z,0.73
2023-04-29T04:20:46.684Z,0.40
2023-04-29T04:23:14.600Z,0.60
2023-04-29T04:25:48.648Z,0.70
2023-04-29T04:28:39.205Z,0.90
2023-04-29T04:31:11.682Z,0.52
2023-04-29T04:33:39.155Z,0.60
2023-04-29T04:36:08.137Z,0.70
2023-04-29T04:38:36.248Z,0.45
2023-04-29T04:41:08.505Z,0.60
2023-04-29T04:43:38.496Z,0.70
2023-04-29T04:46:15.235Z,0.50
2023-04-29T04:48:59.713Z,0.70
2023-04-29T04:51:29.232Z,0.60
2023-04-29T04:56:25.262Z,0.65
2023-04-29T04:58:52.909Z,0.60
2023-04-29T05:01:20.588Z,1.10
2023-04-29T05:03:48.360Z,0.70
2023-04-29T05:06:15.931Z,0.50
2023-04-29T05:08:47.246Z,0.77
2023-04-29T05:11:20.597Z,0.80
2023-04-29T05:14:05.676Z,0.60
2023-04-29T05:16:33.713Z,0.88
2023-04-29T05:19:01.992Z,0.63
2023-04-29T05:21:33.247Z,0.73
2023-04-29T05:24:02.249Z,0.80
2023-04-29T05:26:30.187Z,1.00
2023-04-29T05:29:01.393Z,1.08
2023-04-29T05:31:32.667Z,0.80
2023-04-29T05:34:03.301Z,1.10
2023-04-29T05:36:32.023Z,1.08
2023-04-29T05:39:01.971Z,1.13
2023-04-29T05:41:30.036Z,1.60
2023-04-29T05:44:20.572Z,1.10
2023-04-29T05:46:49.103Z,0.93
2023-04-29T05:49:18.717Z,0.98
2023-04-29T05:51:49.780Z,1.10
2023-04-29T05:54:17.406Z,1.10
2023-04-29T05:56:46.428Z,1.00
2023-04-29T05:59:14.484Z,1.10
2023-04-29T06:01:46.692Z,1.20
2023-04-29T06:04:14.277Z,0.98
2023-04-29T06:07:03.603Z,1.08
2023-04-29T06:09:51.778Z,1.00
2023-04-29T06:12:19.808Z,1.08
2023-04-29T06:14:48.393Z,0.95
2023-04-29T06:17:15.948Z,1.00
2023-04-29T06:19:43.711Z,0.88
2023-04-29T06:22:11.126Z,0.98
2023-04-29T06:24:43.069Z,0.77
2023-04-29T06:27:12.665Z,0.82
2023-04-29T06:29:40.069Z,0.87
2023-04-29T06:32:07.679Z,0.70
2023-04-29T06:34:36.311Z,1.13
2023-04-29T06:37:21.828Z,1.23
2023-04-29T06:40:16.494Z,1.20
2023-04-29T06:43:05.819Z,1.17
2023-04-29T06:45:42.889Z,0.85
2023-04-29T06:48:20.506Z,1.20
2023-04-29T06:50:54.880Z,1.17
2023-04-29T06:53:23.421Z,1.15
2023-04-29T06:55:51.988Z,0.90
2023-04-29T06:58:22.564Z,1.00
2023-04-29T07:00:51.497Z,1.00
2023-04-29T07:03:19.489Z,1.00
2023-04-29T07:05:47.207Z,1.13
2023-04-29T07:08:15.178Z,0.90
2023-04-29T07:10:42.764Z,0.90
2023-04-29T07:13:10.205Z,1.20
2023-04-29T07:15:38.716Z,1.25
2023-04-29T07:18:07.105Z,1.48
2023-04-29T07:20:37.386Z,1.30
2023-04-29T07:23:05.721Z,1.33
2023-04-29T07:25:33.480Z,1.30
2023-04-29T07:28:01.364Z,1.20
2023-04-29T07:30:28.950Z,1.63
2023-04-29T07:32:56.720Z,1.48
2023-04-29T07:35:25.226Z,1.60
2023-04-29T07:37:53.107Z,1.60
2023-04-29T07:40:21.020Z,1.65
2023-04-29T07:45:17.083Z,1.35
2023-04-29T07:47:45.976Z,1.40
2023-04-29T07:50:13.968Z,1.50
2023-04-29T07:52:41.885Z,1.85
2023-04-29T07:55:10.004Z,1.60
2023-04-29T07:57:37.679Z,1.65
2023-04-29T08:00:05.994Z,1.60
2023-04-29T08:02:45.260Z,2.88
2023-04-29T08:05:16.030Z,2.10
2023-04-29T08:07:44.116Z,2.83
2023-04-29T08:10:12.152Z,2.05
2023-04-29T08:12:39.566Z,2.00
2023-04-29T08:15:09.960Z,1.60
2023-04-29T08:17:38.398Z,1.50
2023-04-29T08:22:35.412Z,1.33
2023-04-29T08:25:06.076Z,1.30
2023-04-29T08:27:34.386Z,1.90
2023-04-29T08:30:01.897Z,2.03
2023-04-29T08:32:34.504Z,1.50
2023-04-29T08:35:02.079Z,1.60
2023-04-29T08:37:32.307Z,2.70
2023-04-29T08:40:00.192Z,1.80
2023-04-29T08:42:37.611Z,2.00
2023-04-29T08:45:06.580Z,2.05
2023-04-29T08:47:35.859Z,1.60
2023-04-29T08:50:07.649Z,1.70
2023-04-29T08:52:36.371Z,1.90
2023-04-29T08:55:11.716Z,2.08
2023-04-29T08:57:41.770Z,1.40
2023-04-29T09:00:12.009Z,1.58
2023-04-29T09:02:51.649Z,2.13
2023-04-29T09:05:19.365Z,2.38
2023-04-29T09:07:48.792Z,1.83
2023-04-29T09:10:17.322Z,1.52
2023-04-29T09:12:46.873Z,1.73
2023-04-29T09:15:14.780Z,2.03
2023-04-29T09:17:48.255Z,1.52
2023-04-29T09:20:23.389Z,2.00
2023-04-29T09:23:01.663Z,1.60
2023-04-29T09:25:30.692Z,1.73
2023-04-29T09:27:58.390Z,2.15
2023-04-29T09:30:27.061Z,2.28
2023-04-29T09:33:09.775Z,1.60
2023-04-29T09:35:41.224Z,1.50
2023-04-29T09:38:13.845Z,1.40
2023-04-29T09:40:57.510Z,1.48
2023-04-29T09:43:30.358Z,1.75
2023-04-29T09:45:58.317Z,1.73
2023-04-29T09:48:34.747Z,1.30
2023-04-29T09:51:03.818Z,1.30
2023-04-29T09:53:32.386Z,1.60
2023-04-29T09:56:04.083Z,1.60
2023-04-29T09:58:40.584Z,1.30
2023-04-29T10:01:09.845Z,1.20
2023-04-29T10:03:39.520Z,1.08
2023-04-29T10:06:08.444Z,1.60
2023-04-29T10:08:39.456Z,1.27
2023-04-29T10:11:16.181Z,1.20
2023-04-29T10:13:44.524Z,1.55
2023-04-29T10:19:04.079Z,1.83
2023-04-29T10:21:32.389Z,1.20
2023-04-29T10:24:02.490Z,1.23
2023-04-29T10:26:32.321Z,1.40
2023-04-29T10:29:01.338Z,1.50
2023-04-29T10:31:32.541Z,1.27
2023-04-29T10:34:00.835Z,1.60
2023-04-29T10:39:02.202Z,1.80
2023-04-29T10:41:43.091Z,1.33
2023-04-29T10:44:11.011Z,1.20
2023-04-29T10:46:38.496Z,1.30
2023-04-29T10:49:07.373Z,1.10
2023-04-29T10:51:43.026Z,1.10
2023-04-29T10:54:15.735Z,1.00
2023-04-29T10:56:52.640Z,1.17
2023-04-29T10:59:29.393Z,1.30
2023-04-29T11:01:56.809Z,1.40
2023-04-29T11:04:24.245Z,1.27
2023-04-29T11:06:58.267Z,1.33
2023-04-29T11:09:31.196Z,1.00
2023-04-29T11:12:06.783Z,1.20
2023-04-29T11:14:49.934Z,1.40
2023-04-29T11:17:23.657Z,1.40
2023-04-29T11:19:52.551Z,1.17
2023-04-29T11:22:22.866Z,1.17
2023-04-29T11:25:09.844Z,0.90
2023-04-29T11:27:40.475Z,1.80
2023-04-29T11:30:08.680Z,1.45
2023-04-29T11:32:43.167Z,1.50
2023-04-29T11:35:12.727Z,1.42
2023-04-29T11:37:42.208Z,1.17
2023-04-29T11:40:11.921Z,1.58
2023-04-29T11:42:50.113Z,1.92
2023-04-29T11:45:19.286Z,1.30
2023-04-29T11:47:49.036Z,1.60
2023-04-29T11:50:20.390Z,1.38
2023-04-29T11:52:49.696Z,1.42
2023-04-29T11:55:18.631Z,2.90
2023-04-29T11:57:52.529Z,1.60
2023-04-29T12:00:20.480Z,1.77
2023-04-29T12:02:48.678Z,1.90
2023-04-29T12:05:17.775Z,1.48
2023-04-29T12:07:46.200Z,1.55
2023-04-29T12:10:13.863Z,1.50
2023-04-29T12:12:44.294Z,1.50
2023-04-29T12:15:13.101Z,1.73
2023-04-29T12:20:11.642Z,1.60
2023-04-29T12:22:39.111Z,1.40
2023-04-29T12:25:07.903Z,1.90
2023-04-29T12:27:37.159Z,1.50
2023-04-29T12:30:13.024Z,1.40
2023-04-29T12:32:40.585Z,1.77
2023-04-29T12:35:17.360Z,1.55
2023-04-29T12:37:49.814Z,1.63
2023-04-29T12:40:17.777Z,1.52
2023-04-29T12:42:45.460Z,1.45
2023-04-29T12:45:34.278Z,1.77
2023-04-29T12:48:05.644Z,1.30
2023-04-29T12:50:39.362Z,2.08
2023-04-29T12:53:09.067Z,1.80
2023-04-29T12:55:38.230Z,1.40
2023-04-29T12:58:06.312Z,2.30
2023-04-29T13:00:35.244Z,2.13
2023-04-29T13:03:03.059Z,2.95
2023-04-29T13:05:30.801Z,3.78
2023-04-29T13:07:58.835Z,1.95
2023-04-29T13:10:26.245Z,1.58
2023-04-29T13:12:53.530Z,1.70
2023-04-29T13:15:21.799Z,1.50
2023-04-29T13:20:16.714Z,1.67
2023-04-29T13:22:44.784Z,1.42
2023-04-29T13:25:12.589Z,1.33
2023-04-29T13:27:39.917Z,1.30
2023-04-29T13:30:09.037Z,1.50
2023-04-29T13:35:09.068Z,1.40
2023-04-29T13:37:36.522Z,1.70
2023-04-29T13:40:07.152Z,2.28
2023-04-29T13:42:39.236Z,1.52
2023-04-29T13:45:16.343Z,2.05
2023-04-29T13:48:03.670Z,1.50
2023-04-29T13:53:35.386Z,2.00
2023-04-29T13:56:46.391Z,2.15
2023-04-29T13:59:12.918Z,1.80
2023-04-29T14:02:13.253Z,1.02
2023-04-29T14:04:12.598Z,1.17
2023-04-29T14:06:40.097Z,1.85
2023-04-29T14:09:07.999Z,1.65
2023-04-29T14:11:37.066Z,1.70
2023-04-29T14:14:04.782Z,1.50
2023-04-29T14:16:32.571Z,1.40
2023-04-29T14:19:02.892Z,1.13
2023-04-29T14:21:33.580Z,1.80
2023-04-29T14:24:03.473Z,1.55
2023-04-29T14:26:31.975Z,2.10
2023-04-29T14:29:00.414Z,1.40
2023-04-29T14:31:30.867Z,1.30
2023-04-29T14:33:59.564Z,3.30
2023-04-29T14:36:28.417Z,1.70
2023-04-29T14:38:55.987Z,1.27
2023-04-29T14:41:23.389Z,1.73
2023-04-29T14:43:51.040Z,1.43
2023-04-29T14:46:18.505Z,1.77
2023-04-29T14:48:46.434Z,1.98
2023-04-29T14:51:13.965Z,6.25
2023-04-29T14:53:41.295Z,2.38
2023-04-29T14:56:08.796Z,2.47
2023-04-29T14:58:36.304Z,4.50
2023-04-29T15:01:03.645Z,2.78
2023-04-29T15:03:32.024Z,4.33
2023-04-29T15:06:01.690Z,3.55
2023-04-29T15:08:32.055Z,1.50
2023-04-29T15:10:59.398Z,1.80
2023-04-29T15:13:26.680Z,2.20
2023-04-29T15:15:54.222Z,2.40
2023-04-29T15:18:23.407Z,3.55
2023-04-29T15:20:50.902Z,3.45
2023-04-29T15:23:18.428Z,2.05
2023-04-29T15:25:45.917Z,1.57
2023-04-29T15:28:13.276Z,2.20
2023-04-29T15:30:40.714Z,6.57
2023-04-29T15:33:08.053Z,3.13
2023-04-29T15:35:36.814Z,2.08
2023-04-29T15:38:04.268Z,8.57
2023-04-29T15:40:31.579Z,8.50
2023-04-29T15:42:59.036Z,2.27
2023-04-29T15:45:26.437Z,1.73
2023-04-29T15:47:53.932Z,1.50
2023-04-29T15:50:21.870Z,2.13
2023-04-29T15:52:52.642Z,4.22
2023-04-29T15:55:19.957Z,1.75
2023-04-29T15:57:48.117Z,2.70
2023-04-29T16:00:16.416Z,1.98
2023-04-29T16:02:44.269Z,2.35
2023-04-29T16:05:11.827Z,2.30
2023-04-29T16:07:39.264Z,3.38
2023-04-29T16:10:07.215Z,3.70
2023-04-29T16:12:34.575Z,2.90
2023-04-29T16:15:01.934Z,4.20
2023-04-29T16:17:32.712Z,2.30
2023-04-29T16:20:00.181Z,2.33
2023-04-29T16:22:28.254Z,2.08
2023-04-29T16:24:55.987Z,5.05
2023-04-29T16:27:23.447Z,6.97
2023-04-29T16:29:51.920Z,3.85
2023-04-29T16:32:21.094Z,2.92
2023-04-29T16:37:15.861Z,7.47
2023-04-29T16:39:43.886Z,5.25
2023-04-29T16:42:11.652Z,4.07
2023-04-29T16:44:38.994Z,4.00
2023-04-29T16:47:06.356Z,2.27
2023-04-29T16:49:34.038Z,2.40
2023-04-29T16:52:01.411Z,2.50
2023-04-29T16:54:28.796Z,2.93
2023-04-29T16:56:56.239Z,3.50
2023-04-29T16:59:23.650Z,3.50
2023-04-29T17:01:50.999Z,3.30
2023-04-29T17:04:18.512Z,3.07
2023-04-29T17:06:48.697Z,4.97
2023-04-29T17:09:16.122Z,11.10
2023-04-29T17:11:45.728Z,6.13
2023-04-29T17:14:13.076Z,5.40
2023-04-29T17:16:40.426Z,7.38
2023-04-29T17:19:08.407Z,6.77
2023-04-29T17:21:35.798Z,5.70
2023-04-29T17:24:04.045Z,5.07
2023-04-29T17:26:31.754Z,6.07
2023-04-29T17:28:59.132Z,7.85
2023-04-29T17:31:34.051Z,6.50
2023-04-29T17:34:18.455Z,7.25
2023-04-29T17:36:47.698Z,5.82
2023-04-29T17:39:15.477Z,6.22
2023-04-29T17:41:43.809Z,8.13
2023-04-29T17:44:11.297Z,8.25
2023-04-29T17:46:38.921Z,8.97
2023-04-29T17:49:06.462Z,5.88
2023-04-29T17:51:33.782Z,7.35
2023-04-29T17:54:01.863Z,8.65
2023-04-29T17:56:29.330Z,6.80
2023-04-29T17:58:56.659Z,7.40
2023-04-29T18:01:24.518Z,6.30
2023-04-29T18:03:51.964Z,7.30
2023-04-29T18:06:19.433Z,7.27
2023-04-29T18:08:46.938Z,7.57
2023-04-29T18:11:14.347Z,7.10
2023-04-29T18:13:42.664Z,6.72
2023-04-29T18:16:13.126Z,7.72
2023-04-29T18:18:40.983Z,10.73
2023-04-29T18:21:08.365Z,18.15
2023-04-29T18:23:35.977Z,18.43
2023-04-29T18:26:03.632Z,23.95
2023-04-29T18:28:31.486Z,42.70
2023-04-29T18:30:58.869Z,42.45
2023-04-29T18:33:26.820Z,24.35
2023-04-29T18:35:54.790Z,31.63
2023-04-29T18:38:22.349Z,28.70
2023-04-29T18:40:49.729Z,23.95
2023-04-29T18:43:18.443Z,20.92
2023-04-29T18:45:46.102Z,21.10
2023-04-29T18:48:13.612Z,18.27
2023-04-29T18:50:41.010Z,14.18
2023-04-29T18:53:09.006Z,16.15
2023-04-29T18:55:36.401Z,10.23
2023-04-29T18:58:03.816Z,14.10
2023-04-29T19:00:32.460Z,17.85
2023-04-29T19:02:59.888Z,13.98
2023-04-29T19:05:27.689Z,11.23
2023-04-29T19:07:55.533Z,12.32
2023-04-29T19:10:22.792Z,11.02
2023-04-29T19:12:50.733Z,17.40
2023-04-29T19:15:18.193Z,14.05
2023-04-29T19:17:48.168Z,10.30
2023-04-29T19:20:15.679Z,8.35
2023-04-29T19:22:43.699Z,8.55
2023-04-29T19:25:11.265Z,8.63
2023-04-29T19:27:45.163Z,9.15
2023-04-29T19:30:13.307Z,11.40
2023-04-29T19:32:40.885Z,11.43
2023-04-29T19:35:08.793Z,10.83
2023-04-29T19:37:36.181Z,8.07
2023-04-29T19:40:04.237Z,7.23
2023-04-29T19:42:32.332Z,6.53
2023-04-29T19:44:59.839Z,7.53
2023-04-29T19:47:27.253Z,5.60
2023-04-29T19:49:54.865Z,4.38
2023-04-29T19:52:22.452Z,6.47
2023-04-29T19:54:49.767Z,5.93
2023-04-29T19:57:17.113Z,4.80
2023-04-29T19:59:44.596Z,5.97
2023-04-29T20:02:12.042Z,5.30
2023-04-29T20:04:39.376Z,4.38
2023-04-29T20:07:06.813Z,5.00
2023-04-29T20:09:35.306Z,11.50
2023-04-29T20:12:04.246Z,11.23
2023-04-29T20:14:33.015Z,9.52
2023-04-29T20:17:00.818Z,7.88
2023-04-29T20:19:28.413Z,8.68
2023-04-29T20:21:55.717Z,7.85
2023-04-29T20:24:23.087Z,8.48
2023-04-29T20:26:50.862Z,7.50
2023-04-29T20:29:18.156Z,7.35
2023-04-29T20:31:45.594Z,8.00
2023-04-29T20:34:13.464Z,7.40
2023-04-29T20:36:40.916Z,6.80
2023-04-29T20:39:09.550Z,6.05
2023-04-29T20:41:37.137Z,4.90
2023-04-29T20:44:04.669Z,5.57
2023-04-29T20:46:32.383Z,5.45
2023-04-29T20:48:59.851Z,5.75
2023-04-29T20:51:27.829Z,5.20
2023-04-29T20:53:55.268Z,5.25
2023-04-29T20:56:23.098Z,4.93
2023-04-29T20:58:50.841Z,5.10
2023-04-29T21:01:19.695Z,5.38
2023-04-29T21:03:47.170Z,11.95
2023-04-29T21:06:14.584Z,9.98
2023-04-29T21:08:43.077Z,7.30
2023-04-29T21:11:10.693Z,8.60
2023-04-29T21:13:38.103Z,7.05
2023-04-29T21:16:05.778Z,8.17
2023-04-29T21:18:33.118Z,6.90
2023-04-29T21:21:00.536Z,6.60
2023-04-29T21:23:27.897Z,6.60
2023-04-29T21:25:55.203Z,5.88
2023-04-29T21:28:22.550Z,6.03
2023-04-29T21:30:49.898Z,6.13
2023-04-29T21:33:17.259Z,6.05
2023-04-29T21:35:48.397Z,5.97
2023-04-29T21:38:18.142Z,5.70
2023-04-29T21:43:16.103Z,6.30
2023-04-29T21:45:45.245Z,5.18
2023-04-29T21:48:20.320Z,5.57
2023-04-29T21:50:48.103Z,5.20
2023-04-29T21:53:16.584Z,5.72
2023-04-29T21:55:44.305Z,5.43
2023-04-29T21:58:11.705Z,5.20
2023-04-29T22:00:41.297Z,5.50
2023-04-29T22:03:09.976Z,5.07
2023-04-29T22:05:37.729Z,5.00
2023-04-29T22:08:07.690Z,4.82
2023-04-29T22:10:35.196Z,4.78
2023-04-29T22:13:02.518Z,5.60
2023-04-29T22:15:30.042Z,5.18
2023-04-29T22:17:57.981Z,5.05
2023-04-29T22:20:25.924Z,5.50
2023-04-29T22:22:54.131Z,5.03
2023-04-29T22:25:22.140Z,5.05
2023-04-29T22:27:50.561Z,5.78
2023-04-29T22:30:18.767Z,5.22
2023-04-29T22:32:46.134Z,5.75
2023-04-29T22:35:13.622Z,5.47
2023-04-29T22:37:41.247Z,6.13
2023-04-29T22:40:09.527Z,5.47
2023-04-29T22:42:37.211Z,5.38
2023-04-29T22:45:05.130Z,5.03
2023-04-29T22:47:32.839Z,5.65
2023-04-29T22:50:00.197Z,6.03
2023-04-29T22:52:27.755Z,5.40
2023-04-29T22:54:55.240Z,5.63
2023-04-29T22:57:22.628Z,5.47
2023-04-29T22:59:57.655Z,5.35
2023-04-29T23:02:29.621Z,5.60
2023-04-29T23:04:58.040Z,4.93
2023-04-29T23:07:26.299Z,5.65
2023-04-29T23:09:53.848Z,5.45
2023-04-29T23:12:21.528Z,5.38
2023-04-29T23:14:51.119Z,5.57
2023-04-29T23:17:18.714Z,5.97
2023-04-29T23:19:46.156Z,6.00
2023-04-29T23:22:13.628Z,5.90
2023-04-29T23:24:41.159Z,5.93
2023-04-29T23:27:08.500Z,6.10
2023-04-29T23:29:35.872Z,6.22
2023-04-29T23:32:03.502Z,6.35
2023-04-29T23:34:31.141Z,6.53
2023-04-29T23:36:58.481Z,6.85
2023-04-29T23:39:25.821Z,6.13
2023-04-29T23:41:53.157Z,6.88
2023-04-29T23:44:21.328Z,7.28
2023-04-29T23:46:48.835Z,7.15
2023-04-29T23:49:16.218Z,6.45
2023-04-29T23:51:43.556Z,6.93
2023-04-29T23:54:10.854Z,6.70
2023-04-29T23:56:38.246Z,6.53
2023-04-29T23:59:05.886Z,6.00
